createdAt,value
2022-10-10T00:01:27.990Z,8.10
2022-10-10T00:03:56.450Z,8.20
2022-10-10T00:06:29.164Z,8.10
2022-10-10T00:08:59.779Z,8.20
2022-10-10T00:11:27.707Z,8.20
2022-10-10T00:13:55.654Z,8.20
2022-10-10T00:16:23.673Z,8.20
2022-10-10T00:18:52.156Z,8.20
2022-10-10T00:21:20.471Z,8.30
2022-10-10T00:23:49.758Z,8.30
2022-10-10T00:26:19.201Z,8.30
2022-10-10T00:28:47.720Z,8.40
2022-10-10T00:31:16.519Z,8.40
2022-10-10T00:33:44.827Z,8.40
2022-10-10T00:36:13.003Z,8.40
2022-10-10T00:38:40.898Z,8.40
2022-10-10T00:41:10.540Z,8.50
2022-10-10T00:43:38.775Z,8.50
2022-10-10T00:46:06.930Z,8.50
2022-10-10T00:48:37.303Z,8.50
2022-10-10T00:51:09.262Z,8.50
2022-10-10T00:53:40.491Z,8.60
2022-10-10T00:56:11.239Z,8.60
2022-10-10T00:58:42.031Z,8.60
2022-10-10T01:01:10.340Z,8.60
2022-10-10T01:03:38.359Z,8.70
2022-10-10T01:06:07.394Z,8.70
2022-10-10T01:08:35.451Z,8.70
2022-10-10T01:11:17.446Z,8.70
2022-10-10T01:13:53.334Z,8.80
2022-10-10T01:16:28.508Z,8.70
2022-10-10T01:19:08.398Z,8.80
2022-10-10T01:21:44.611Z,8.80
2022-10-10T01:24:32.078Z,8.70
2022-10-10T01:27:32.019Z,8.70
2022-10-10T01:30:05.944Z,8.70
2022-10-10T01:32:39.791Z,8.70
2022-10-10T01:35:40.853Z,8.70
2022-10-10T01:38:22.065Z,8.70
2022-10-10T01:40:54.840Z,8.60
2022-10-10T01:43:24.820Z,8.60
2022-10-10T01:45:55.320Z,8.60
2022-10-10T01:48:25.983Z,8.60
2022-10-10T01:51:12.387Z,8.60
2022-10-10T01:53:47.786Z,8.50
2022-10-10T01:56:25.029Z,8.50
2022-10-10T01:59:11.263Z,8.50
2022-10-10T02:01:47.975Z,8.50
2022-10-10T02:04:24.331Z,8.50
2022-10-10T02:06:55.593Z,8.50
2022-10-10T02:09:32.981Z,8.40
2022-10-10T02:12:02.851Z,8.40
2022-10-10T02:14:35.258Z,8.40
2022-10-10T02:17:06.699Z,8.30
2022-10-10T02:19:35.890Z,8.30
2022-10-10T02:22:05.502Z,8.30
2022-10-10T02:24:33.379Z,8.20
2022-10-10T02:27:07.539Z,8.30
2022-10-10T02:29:38.467Z,8.30
2022-10-10T02:32:13.124Z,8.30
2022-10-10T02:34:46.506Z,8.30
2022-10-10T02:37:16.900Z,8.30
2022-10-10T02:39:49.406Z,8.30
2022-10-10T02:42:22.388Z,8.30
2022-10-10T02:44:51.579Z,8.30
2022-10-10T02:47:20.920Z,8.30
2022-10-10T02:49:49.496Z,8.30
2022-10-10T02:52:18.162Z,8.40
2022-10-10T02:54:46.135Z,8.40
2022-10-10T02:57:14.046Z,8.30
2022-10-10T02:59:42.172Z,8.30
2022-10-10T03:02:10.029Z,8.30
2022-10-10T03:04:39.604Z,8.30
2022-10-10T03:07:07.499Z,8.30
2022-10-10T03:09:35.673Z,8.20
2022-10-10T03:12:03.507Z,8.20
2022-10-10T03:14:31.448Z,8.00
2022-10-10T03:16:59.453Z,8.00
2022-10-10T03:19:27.711Z,7.90
2022-10-10T03:21:56.943Z,7.90
2022-10-10T03:24:24.956Z,7.90
2022-10-10T03:26:52.890Z,7.80
2022-10-10T03:29:20.803Z,7.80
2022-10-10T03:31:48.708Z,7.80
2022-10-10T03:34:16.616Z,7.70
2022-10-10T03:36:44.569Z,7.60
2022-10-10T03:39:13.866Z,7.50
2022-10-10T03:41:41.799Z,7.40
2022-10-10T03:44:09.730Z,7.40
2022-10-10T03:46:37.713Z,7.40
2022-10-10T03:49:05.642Z,7.40
2022-10-10T03:51:33.532Z,7.50
2022-10-10T03:54:01.428Z,7.40
2022-10-10T03:56:30.730Z,7.40
2022-10-10T03:59:00.690Z,7.50
2022-10-10T04:01:28.849Z,7.40
2022-10-10T04:03:56.860Z,7.30
2022-10-10T04:06:24.893Z,7.30
2022-10-10T04:08:52.899Z,7.30
2022-10-10T04:11:20.878Z,7.30
2022-10-10T04:13:50.104Z,7.30
2022-10-10T04:16:18.007Z,7.40
2022-10-10T04:18:46.029Z,7.40
2022-10-10T04:21:13.960Z,7.50
2022-10-10T04:23:41.880Z,7.60
2022-10-10T04:26:10.275Z,7.70
2022-10-10T04:28:38.323Z,7.80
2022-10-10T04:31:07.890Z,7.90
2022-10-10T04:33:35.805Z,7.90
2022-10-10T04:36:03.815Z,8.00
2022-10-10T04:38:31.830Z,8.10
2022-10-10T04:40:59.777Z,8.10
2022-10-10T04:43:27.704Z,8.10
2022-10-10T04:45:57.955Z,8.10
2022-10-10T04:48:27.340Z,8.10
2022-10-10T04:50:56.643Z,8.10
2022-10-10T04:53:25.037Z,8.00
2022-10-10T04:55:53.229Z,8.00
2022-10-10T04:58:21.222Z,8.00
2022-10-10T05:00:52.588Z,8.00
2022-10-10T05:03:20.577Z,7.90
2022-10-10T05:05:50.220Z,8.00
2022-10-10T05:08:18.226Z,8.00
2022-10-10T05:10:47.610Z,8.00
2022-10-10T05:13:16.651Z,8.00
2022-10-10T05:15:45.001Z,8.10
2022-10-10T05:18:12.895Z,8.00
2022-10-10T05:20:41.044Z,8.10
2022-10-10T05:23:10.355Z,8.10
2022-10-10T05:25:38.476Z,8.20
2022-10-10T05:28:06.519Z,8.20
2022-10-10T05:30:34.443Z,8.30
2022-10-10T05:33:02.372Z,8.30
2022-10-10T05:35:30.873Z,8.30
2022-10-10T05:37:58.788Z,8.30
2022-10-10T05:40:28.132Z,8.30
2022-10-10T05:42:56.008Z,8.30
2022-10-10T05:45:23.935Z,8.20
2022-10-10T05:47:51.909Z,8.20
2022-10-10T05:50:30.997Z,8.00
2022-10-10T05:52:58.954Z,7.90
2022-10-10T05:55:28.515Z,7.80
2022-10-10T05:57:56.608Z,7.70
2022-10-10T06:00:24.510Z,7.70
2022-10-10T06:02:52.746Z,7.70
2022-10-10T06:05:20.950Z,7.70
2022-10-10T06:08:10.483Z,7.70
2022-10-10T06:10:40.019Z,7.70
2022-10-10T06:13:08.011Z,7.80
2022-10-10T06:15:35.886Z,7.90
2022-10-10T06:18:04.029Z,7.90
2022-10-10T06:20:31.977Z,7.90
2022-10-10T06:22:59.852Z,8.00
2022-10-10T06:25:40.187Z,8.10
2022-10-10T06:28:10.758Z,8.30
2022-10-10T06:30:42.084Z,8.80
2022-10-10T06:33:10.297Z,9.30
2022-10-10T06:35:42.118Z,9.80
2022-10-10T06:38:10.378Z,10.20
2022-10-10T06:40:38.474Z,10.70
2022-10-10T06:43:08.858Z,11.10
2022-10-10T06:45:39.108Z,11.50
2022-10-10T06:48:07.433Z,11.70
2022-10-10T06:50:35.884Z,11.90
2022-10-10T06:53:03.769Z,11.90
2022-10-10T06:55:31.871Z,12.10
2022-10-10T06:57:59.877Z,12.30
2022-10-10T07:00:27.821Z,12.60
2022-10-10T07:02:57.078Z,12.80
2022-10-10T07:05:25.076Z,13.10
2022-10-10T07:07:53.637Z,13.50
2022-10-10T07:10:21.681Z,13.80
2022-10-10T07:12:49.562Z,14.20
2022-10-10T07:15:17.636Z,14.50
2022-10-10T07:17:47.326Z,14.70
2022-10-10T07:20:19.838Z,14.80
2022-10-10T07:22:47.873Z,14.90
2022-10-10T07:25:15.952Z,14.90
2022-10-10T07:27:43.882Z,14.90
2022-10-10T07:30:12.971Z,14.90
2022-10-10T07:32:40.886Z,15.10
2022-10-10T07:35:09.498Z,15.10
2022-10-10T07:37:39.083Z,15.50
2022-10-10T07:40:09.165Z,15.70
2022-10-10T07:42:37.412Z,16.00
2022-10-10T07:45:06.689Z,16.30
2022-10-10T07:47:34.773Z,16.50
2022-10-10T07:50:02.698Z,16.60
2022-10-10T07:52:30.524Z,16.70
2022-10-10T07:54:59.755Z,16.60
2022-10-10T07:57:27.660Z,16.60
2022-10-10T07:59:55.572Z,16.70
2022-10-10T08:02:23.434Z,16.80
2022-10-10T08:04:51.321Z,16.90
2022-10-10T08:07:19.567Z,17.20
2022-10-10T08:09:47.485Z,17.40
2022-10-10T08:12:16.765Z,17.40
2022-10-10T08:14:44.649Z,17.30
2022-10-10T08:17:13.965Z,17.30
2022-10-10T08:19:41.885Z,17.20
2022-10-10T08:22:09.877Z,17.10
2022-10-10T08:24:37.807Z,17.30
2022-10-10T08:27:05.670Z,17.40
2022-10-10T08:29:35.076Z,17.50
2022-10-10T08:32:02.977Z,17.80
2022-10-10T08:34:30.857Z,18.00
2022-10-10T08:36:58.745Z,18.00
2022-10-10T08:39:26.622Z,18.00
2022-10-10T08:41:57.593Z,18.10
2022-10-10T08:44:30.446Z,18.00
2022-10-10T08:47:03.636Z,18.40
2022-10-10T08:49:35.783Z,18.60
2022-10-10T08:52:08.853Z,18.70
2022-10-10T08:54:38.984Z,18.70
2022-10-10T08:57:09.050Z,18.90
2022-10-10T08:59:40.568Z,18.90
2022-10-10T09:02:50.220Z,18.80
2022-10-10T09:05:26.808Z,18.70
2022-10-10T09:08:14.159Z,18.60
2022-10-10T09:10:54.485Z,18.90
2022-10-10T09:13:32.959Z,19.00
2022-10-10T09:16:03.354Z,19.50
2022-10-10T09:18:45.013Z,19.70
2022-10-10T09:21:16.455Z,20.00
2022-10-10T09:23:51.780Z,19.60
2022-10-10T09:26:24.065Z,19.70
2022-10-10T09:28:56.474Z,19.70
2022-10-10T09:31:29.451Z,19.80
2022-10-10T09:34:04.787Z,19.80
2022-10-10T09:36:37.698Z,19.60
2022-10-10T09:39:15.058Z,19.50
2022-10-10T09:41:47.457Z,19.40
2022-10-10T09:44:18.423Z,19.50
2022-10-10T09:46:46.417Z,19.80
2022-10-10T09:49:17.398Z,19.80
2022-10-10T09:51:46.111Z,20.00
2022-10-10T09:54:17.155Z,20.20
2022-10-10T09:56:49.649Z,20.20
2022-10-10T09:59:36.758Z,20.30
2022-10-10T10:02:13.111Z,20.40
2022-10-10T10:04:42.459Z,20.30
2022-10-10T10:07:21.107Z,20.70
2022-10-10T10:09:50.099Z,20.70
2022-10-10T10:12:23.038Z,20.60
2022-10-10T10:14:52.623Z,20.90
2022-10-10T10:17:24.393Z,21.00
2022-10-10T10:19:53.998Z,20.80
2022-10-10T10:22:33.662Z,20.80
2022-10-10T10:25:22.130Z,20.80
2022-10-10T10:27:50.053Z,21.10
2022-10-10T10:30:25.955Z,20.90
2022-10-10T10:33:02.438Z,20.90
2022-10-10T10:35:37.289Z,21.00
2022-10-10T10:38:18.590Z,21.10
2022-10-10T10:40:57.837Z,21.00
2022-10-10T10:43:57.106Z,20.90
2022-10-10T10:46:38.991Z,21.20
2022-10-10T10:49:16.044Z,21.30
2022-10-10T10:52:16.797Z,21.40
2022-10-10T10:54:59.310Z,21.50
2022-10-10T10:57:45.806Z,21.50
2022-10-10T11:01:19.926Z,21.60
2022-10-10T11:05:15.437Z,21.70
2022-10-10T11:06:19.495Z,22.00
2022-10-10T11:09:05.539Z,22.20
2022-10-10T11:11:46.905Z,22.50
2022-10-10T11:14:26.627Z,22.20
2022-10-10T11:16:58.753Z,22.20
2022-10-10T11:19:32.092Z,22.40
2022-10-10T11:22:04.672Z,22.50
2022-10-10T11:24:44.545Z,22.40
2022-10-10T11:27:18.134Z,22.30
2022-10-10T11:29:57.336Z,22.30
2022-10-10T11:32:29.279Z,22.30
2022-10-10T11:35:11.511Z,22.40
2022-10-10T11:37:47.201Z,22.30
2022-10-10T11:40:31.282Z,22.60
2022-10-10T11:43:03.536Z,22.50
2022-10-10T11:45:36.301Z,22.40
2022-10-10T11:48:14.108Z,22.40
2022-10-10T11:50:44.382Z,22.50
2022-10-10T11:53:20.178Z,22.70
2022-10-10T11:55:55.683Z,22.60
2022-10-10T11:58:34.131Z,22.40
2022-10-10T12:01:07.378Z,22.50
2022-10-10T12:03:35.292Z,22.50
2022-10-10T12:06:08.861Z,22.70
2022-10-10T12:08:40.845Z,22.70
2022-10-10T12:11:17.207Z,22.60
2022-10-10T12:13:48.223Z,22.50
2022-10-10T12:16:19.704Z,22.50
2022-10-10T12:18:53.626Z,22.10
2022-10-10T12:21:24.767Z,22.00
2022-10-10T12:24:02.633Z,22.00
2022-10-10T12:27:03.926Z,22.00
2022-10-10T12:29:47.744Z,22.40
2022-10-10T12:32:27.641Z,22.60
2022-10-10T12:35:00.928Z,22.60
2022-10-10T12:37:31.007Z,22.40
2022-10-10T12:40:29.099Z,22.20
2022-10-10T12:43:06.193Z,21.70
2022-10-10T12:46:09.178Z,21.40
2022-10-10T12:48:37.414Z,21.30
2022-10-10T12:51:05.842Z,21.20
2022-10-10T12:53:35.312Z,21.10
2022-10-10T12:56:04.599Z,21.20
2022-10-10T12:58:36.564Z,21.40
2022-10-10T13:01:09.884Z,21.60
2022-10-10T13:03:41.161Z,21.80
2022-10-10T13:06:27.532Z,22.00
2022-10-10T13:08:56.824Z,22.10
2022-10-10T13:11:24.909Z,22.20
2022-10-10T13:13:54.834Z,22.20
2022-10-10T13:16:28.729Z,22.30
2022-10-10T13:19:01.644Z,22.40
2022-10-10T13:21:32.142Z,22.60
2022-10-10T13:24:03.860Z,22.60
2022-10-10T13:26:35.285Z,22.50
2022-10-10T13:29:14.783Z,22.40
2022-10-10T13:31:44.502Z,22.60
2022-10-10T13:34:18.664Z,22.60
2022-10-10T13:36:47.706Z,22.60
2022-10-10T13:39:17.672Z,22.60
2022-10-10T13:41:47.127Z,22.70
2022-10-10T13:44:16.807Z,22.70
2022-10-10T13:46:46.065Z,22.70
2022-10-10T13:49:24.142Z,22.50
2022-10-10T13:52:03.043Z,22.40
2022-10-10T13:54:45.910Z,22.50
2022-10-10T13:57:18.086Z,22.40
2022-10-10T13:59:48.774Z,22.30
2022-10-10T14:02:25.256Z,22.20
2022-10-10T14:04:54.921Z,22.20
2022-10-10T14:07:26.365Z,22.20
2022-10-10T14:09:56.776Z,22.00
2022-10-10T14:12:31.710Z,22.00
2022-10-10T14:15:01.189Z,22.00
2022-10-10T14:17:30.677Z,21.90
2022-10-10T14:19:58.683Z,21.80
2022-10-10T14:22:26.765Z,21.80
2022-10-10T14:24:54.650Z,21.60
2022-10-10T14:27:25.262Z,21.60
2022-10-10T14:29:54.738Z,21.40
2022-10-10T14:32:23.464Z,21.20
2022-10-10T14:34:52.680Z,21.00
2022-10-10T14:37:23.910Z,20.80
2022-10-10T14:39:52.121Z,20.80
2022-10-10T14:42:21.965Z,20.80
2022-10-10T14:44:49.845Z,20.60
2022-10-10T14:47:18.876Z,20.50
2022-10-10T14:49:47.073Z,20.30
2022-10-10T14:52:17.034Z,20.20
2022-10-10T14:54:44.944Z,20.00
2022-10-10T14:57:14.436Z,19.70
2022-10-10T14:59:46.374Z,19.50
2022-10-10T15:02:18.686Z,19.30
2022-10-10T15:04:46.584Z,19.10
2022-10-10T15:07:16.153Z,19.00
2022-10-10T15:10:09.670Z,19.00
2022-10-10T15:12:32.960Z,18.90
2022-10-10T15:15:01.057Z,18.80
2022-10-10T15:17:30.472Z,18.80
2022-10-10T15:19:58.521Z,18.70
2022-10-10T15:22:28.444Z,18.60
2022-10-10T15:24:56.352Z,18.60
2022-10-10T15:27:24.228Z,18.50
2022-10-10T15:29:52.103Z,18.50
2022-10-10T15:32:19.971Z,18.40
2022-10-10T15:34:48.920Z,18.40
2022-10-10T15:37:17.025Z,18.40
2022-10-10T15:39:47.693Z,18.30
2022-10-10T15:42:21.475Z,18.30
2022-10-10T15:44:50.907Z,18.20
2022-10-10T15:47:19.699Z,18.10
2022-10-10T15:49:48.065Z,18.00
2022-10-10T15:52:16.633Z,17.90
2022-10-10T15:54:48.641Z,17.70
2022-10-10T15:57:18.709Z,17.60
2022-10-10T15:59:47.288Z,17.50
2022-10-10T16:02:15.897Z,17.30
2022-10-10T16:04:44.196Z,17.10
2022-10-10T16:07:26.838Z,17.00
2022-10-10T16:10:01.118Z,16.90
2022-10-10T16:12:29.069Z,16.80
2022-10-10T16:14:56.979Z,16.60
2022-10-10T16:17:24.902Z,16.50
2022-10-10T16:19:52.814Z,16.30
2022-10-10T16:22:21.334Z,16.20
2022-10-10T16:25:10.301Z,16.00
2022-10-10T16:27:39.494Z,16.00
2022-10-10T16:30:08.781Z,15.80
2022-10-10T16:32:41.991Z,15.60
2022-10-10T16:35:11.070Z,15.40
2022-10-10T16:37:39.297Z,15.20
2022-10-10T16:40:08.469Z,15.10
2022-10-10T16:42:37.903Z,15.00
2022-10-10T16:45:07.023Z,14.90
2022-10-10T16:47:35.025Z,14.90
2022-10-10T16:50:03.390Z,14.80
2022-10-10T16:52:33.023Z,14.70
2022-10-10T16:55:00.897Z,14.60
2022-10-10T16:57:28.793Z,14.60
2022-10-10T16:59:58.031Z,14.40
2022-10-10T17:02:25.982Z,14.30
2022-10-10T17:04:53.860Z,14.20
2022-10-10T17:07:22.384Z,14.00
2022-10-10T17:09:50.273Z,13.80
2022-10-10T17:12:19.344Z,13.70
2022-10-10T17:14:47.337Z,13.60
2022-10-10T17:17:17.446Z,13.50
2022-10-10T17:19:45.485Z,13.50
2022-10-10T17:22:13.424Z,13.40
2022-10-10T17:24:41.312Z,13.30
2022-10-10T17:27:09.248Z,13.30
2022-10-10T17:29:37.129Z,13.20
2022-10-10T17:32:06.747Z,13.10
2022-10-10T17:34:36.756Z,12.90
2022-10-10T17:37:05.292Z,12.70
2022-10-10T17:39:33.817Z,12.60
2022-10-10T17:42:01.818Z,12.60
2022-10-10T17:44:29.775Z,12.60
2022-10-10T17:46:57.704Z,12.70
2022-10-10T17:49:25.729Z,12.70
2022-10-10T17:51:54.953Z,12.70
2022-10-10T17:54:23.279Z,12.50
2022-10-10T17:56:51.520Z,12.40
2022-10-10T17:59:19.454Z,12.30
2022-10-10T18:01:47.368Z,12.20
2022-10-10T18:04:16.430Z,12.00
2022-10-10T18:06:44.371Z,12.00
2022-10-10T18:09:13.880Z,12.00
2022-10-10T18:11:41.810Z,12.10
2022-10-10T18:14:09.687Z,12.10
2022-10-10T18:16:38.099Z,12.10
2022-10-10T18:19:08.075Z,12.10
2022-10-10T18:21:36.660Z,12.20
2022-10-10T18:24:05.047Z,12.20
2022-10-10T18:26:35.025Z,12.20
2022-10-10T18:29:03.115Z,12.20
2022-10-10T18:31:33.716Z,12.20
2022-10-10T18:34:02.307Z,12.30
2022-10-10T18:36:32.227Z,12.20
2022-10-10T18:39:01.382Z,12.20
2022-10-10T18:41:34.193Z,12.20
2022-10-10T18:44:05.446Z,12.20
2022-10-10T18:46:33.426Z,12.00
2022-10-10T18:49:02.312Z,12.00
2022-10-10T18:51:30.612Z,12.00
2022-10-10T18:54:03.218Z,11.80
2022-10-10T18:56:32.713Z,11.70
2022-10-10T18:59:03.484Z,11.80
2022-10-10T19:01:36.275Z,11.70
2022-10-10T19:04:05.144Z,11.70
2022-10-10T19:06:33.426Z,11.70
2022-10-10T19:09:02.429Z,11.80
2022-10-10T19:11:32.807Z,11.90
2022-10-10T19:14:04.023Z,12.00
2022-10-10T19:16:32.265Z,12.20
2022-10-10T19:19:01.231Z,12.30
2022-10-10T19:21:31.771Z,12.30
2022-10-10T19:24:00.098Z,12.30
2022-10-10T19:26:33.117Z,12.30
2022-10-10T19:29:06.464Z,12.30
2022-10-10T19:31:36.691Z,12.30
2022-10-10T19:34:05.282Z,12.30
2022-10-10T19:36:35.066Z,12.20
2022-10-10T19:39:04.485Z,12.20
2022-10-10T19:41:32.406Z,12.20
2022-10-10T19:44:04.714Z,12.20
2022-10-10T19:46:36.674Z,12.20
2022-10-10T19:49:06.480Z,12.30
2022-10-10T19:51:34.621Z,12.30
2022-10-10T19:54:02.531Z,12.40
2022-10-10T19:56:30.496Z,12.40
2022-10-10T19:59:00.505Z,12.40
2022-10-10T20:01:30.779Z,12.50
2022-10-10T20:03:59.335Z,12.50
2022-10-10T20:06:29.143Z,12.50
2022-10-10T20:08:57.365Z,12.50
2022-10-10T20:11:26.498Z,12.50
2022-10-10T20:13:55.672Z,12.50
2022-10-10T20:16:24.848Z,12.60
2022-10-10T20:18:52.805Z,12.60
2022-10-10T20:21:23.060Z,12.60
2022-10-10T20:23:52.518Z,12.70
2022-10-10T20:26:22.355Z,12.70
2022-10-10T20:28:51.406Z,12.70
2022-10-10T20:31:21.646Z,12.70
2022-10-10T20:33:51.400Z,12.70
2022-10-10T20:36:20.920Z,12.70
2022-10-10T20:38:54.455Z,12.70
2022-10-10T20:41:23.252Z,12.70
2022-10-10T20:43:51.263Z,12.70
2022-10-10T20:46:19.268Z,12.80
2022-10-10T20:48:47.278Z,12.80
2022-10-10T20:51:15.271Z,12.80
2022-10-10T20:53:43.157Z,12.90
2022-10-10T20:56:13.782Z,12.90
2022-10-10T20:58:41.892Z,12.90
2022-10-10T21:01:12.432Z,12.90
2022-10-10T21:03:41.754Z,12.90
2022-10-10T21:06:12.858Z,12.90
2022-10-10T21:08:41.254Z,12.90
2022-10-10T21:11:11.601Z,12.90
2022-10-10T21:13:42.612Z,13.00
2022-10-10T21:16:12.690Z,13.00
2022-10-10T21:18:41.464Z,13.00
2022-10-10T21:21:09.919Z,12.90
2022-10-10T21:23:39.543Z,12.80
2022-10-10T21:26:08.327Z,12.80
2022-10-10T21:28:36.758Z,12.80
2022-10-10T21:31:06.981Z,12.80
2022-10-10T21:33:35.565Z,12.90
2022-10-10T21:36:03.849Z,12.90
2022-10-10T21:38:32.291Z,12.90
2022-10-10T21:41:06.151Z,12.90
2022-10-10T21:43:34.657Z,12.90
2022-10-10T21:46:08.607Z,12.90
2022-10-10T21:48:36.991Z,12.80
2022-10-10T21:51:05.698Z,12.80
2022-10-10T21:53:33.894Z,12.70
2022-10-10T21:56:05.414Z,12.70
2022-10-10T21:58:35.584Z,12.60
2022-10-10T22:01:10.607Z,12.60
2022-10-10T22:03:39.360Z,12.60
2022-10-10T22:06:08.823Z,12.60
2022-10-10T22:08:37.585Z,12.60
2022-10-10T22:11:07.869Z,12.70
2022-10-10T22:13:36.045Z,12.70
2022-10-10T22:16:04.623Z,12.80
2022-10-10T22:18:34.963Z,12.80
2022-10-10T22:21:04.264Z,12.80
2022-10-10T22:23:32.189Z,12.90
2022-10-10T22:26:00.325Z,12.90
2022-10-10T22:28:28.567Z,12.90
2022-10-10T22:30:57.005Z,12.80
2022-10-10T22:33:24.917Z,12.90
2022-10-10T22:35:54.152Z,12.90
2022-10-10T22:38:22.070Z,12.90
2022-10-10T22:40:50.146Z,12.80
2022-10-10T22:43:18.065Z,12.80
2022-10-10T22:45:46.042Z,12.80
2022-10-10T22:48:13.991Z,12.80
2022-10-10T22:50:41.865Z,12.80
2022-10-10T22:53:11.166Z,12.90
2022-10-10T22:55:39.043Z,12.90
2022-10-10T22:58:06.960Z,12.90
2022-10-10T23:00:34.913Z,12.90
2022-10-10T23:03:02.875Z,12.90
2022-10-10T23:05:30.822Z,12.90
2022-10-10T23:07:58.769Z,12.90
2022-10-10T23:10:28.276Z,12.90
2022-10-10T23:12:56.210Z,12.80
2022-10-10T23:15:24.118Z,12.80
2022-10-10T23:17:52.178Z,12.80
2022-10-10T23:20:20.059Z,12.70
2022-10-10T23:22:48.048Z,12.80
2022-10-10T23:25:16.010Z,12.80
2022-10-10T23:27:45.350Z,12.80
2022-10-10T23:30:13.655Z,12.80
2022-10-10T23:32:41.629Z,12.80
2022-10-10T23:35:10.306Z,12.80
2022-10-10T23:37:38.487Z,12.80
2022-10-10T23:40:07.342Z,12.80
2022-10-10T23:42:35.244Z,12.70
2022-10-10T23:45:05.014Z,12.70
2022-10-10T23:47:32.917Z,12.60
2022-10-10T23:50:01.181Z,12.70
2022-10-10T23:52:29.092Z,12.70
2022-10-10T23:54:57.002Z,12.70
2022-10-10T23:57:24.896Z,12.70
2022-10-10T23:59:52.821Z,12.70
